Terminal Aerodrome Forecast
Issued by NWS

Home | Current Version | Previous Version | Text Only | Print | Product List | Glossary On
Versions: 1 2 3 4 5 6 7 8 9 10 11 12 13 14 15 16 17 18 19 20
000
FTUS46 KPDT 212320
TAFALW
TAF
KALW 212320Z 2200/2224 21007KT P6SM SCT040 BKN070 BKN200
     FM220400 14005KT P6SM BKN050 BKN200
     FM221500 23006KT P6SM BKN050 BKN200
     FM222100 34005KT P6SM SCT070 SCT140=

USA.gov is the U.S. government's official web portal to all federal, state and local government web resources and services.